createdAt,value
2022-10-05T00:00:45.833Z,101452.19
2022-10-05T00:03:12.217Z,101450.53
2022-10-05T00:05:39.230Z,101450.88
2022-10-05T00:08:14.061Z,101439.97
2022-10-05T00:10:41.440Z,101440.50
2022-10-05T00:13:28.660Z,101438.34
2022-10-05T00:16:04.716Z,101435.22
2022-10-05T00:18:32.457Z,101431.91
2022-10-05T00:20:59.819Z,101428.31
2022-10-05T00:23:30.502Z,101418.59
2022-10-05T00:26:09.578Z,101423.03
2022-10-05T00:28:35.974Z,101415.78
2022-10-05T00:31:02.459Z,101417.25
2022-10-05T00:33:28.877Z,101419.38
2022-10-05T00:35:55.513Z,101419.09
2022-10-05T00:38:22.367Z,101417.59
2022-10-05T00:41:15.850Z,101419.06
2022-10-05T00:43:54.355Z,101427.09
2022-10-05T00:46:49.041Z,101426.53
2022-10-05T00:49:27.604Z,101422.44
2022-10-05T00:52:11.541Z,101423.53
2022-10-05T00:54:46.335Z,101424.84
2022-10-05T00:57:37.826Z,101430.31
2022-10-05T01:00:04.135Z,101423.56
2022-10-05T01:02:37.208Z,101417.47
2022-10-05T01:05:24.149Z,101416.81
2022-10-05T01:08:19.807Z,101426.19
2022-10-05T01:11:14.529Z,101421.06
2022-10-05T01:14:12.416Z,101424.06
2022-10-05T01:16:54.496Z,101418.13
2022-10-05T01:19:42.492Z,101423.56
2022-10-05T01:22:47.957Z,101420.91
2022-10-05T01:25:37.883Z,101412.56
2022-10-05T01:28:12.811Z,101414.97
2022-10-05T01:31:03.095Z,101415.72
2022-10-05T01:33:41.888Z,101401.94
2022-10-05T01:36:20.309Z,101402.72
2022-10-05T01:39:03.961Z,101394.81
2022-10-05T01:41:48.699Z,101393.47
2022-10-05T01:44:25.059Z,101394.50
2022-10-05T01:47:09.002Z,101388.19
2022-10-05T01:49:45.494Z,101394.88
2022-10-05T01:52:50.971Z,101389.91
2022-10-05T01:55:36.278Z,101385.56
2022-10-05T01:58:02.640Z,101385.41
2022-10-05T02:00:32.747Z,101383.69
2022-10-05T02:03:07.766Z,101389.09
2022-10-05T02:05:52.837Z,101375.44
2022-10-05T02:08:27.181Z,101377.25
2022-10-05T02:11:01.406Z,101375.13
2022-10-05T02:13:33.461Z,101375.25
2022-10-05T02:16:38.942Z,101371.59
2022-10-05T02:19:16.951Z,101367.19
2022-10-05T02:21:46.206Z,101366.94
2022-10-05T02:24:22.155Z,101361.41
2022-10-05T02:26:51.010Z,101368.84
2022-10-05T02:29:21.478Z,101367.38
2022-10-05T02:31:54.495Z,101369.97
2022-10-05T02:34:36.424Z,101366.94
2022-10-05T02:37:28.683Z,101362.00
2022-10-05T02:40:22.967Z,101370.25
2022-10-05T02:42:57.983Z,101369.63
2022-10-05T02:45:52.047Z,101361.19
2022-10-05T02:48:52.526Z,101357.91
2022-10-05T02:51:32.104Z,101359.81
2022-10-05T02:54:16.160Z,101349.13
2022-10-05T02:56:59.772Z,101341.97
2022-10-05T02:59:38.441Z,101344.59
2022-10-05T03:02:15.608Z,101343.88
2022-10-05T03:05:18.672Z,101347.03
2022-10-05T03:07:50.399Z,101352.28
2022-10-05T03:10:35.630Z,101346.22
2022-10-05T03:13:39.622Z,101334.56
2022-10-05T03:16:18.213Z,101336.31
2022-10-05T03:19:13.750Z,101327.19
2022-10-05T03:21:51.311Z,101334.75
2022-10-05T03:24:55.078Z,101334.75
2022-10-05T03:27:44.809Z,101330.13
2022-10-05T03:30:21.870Z,101325.66
2022-10-05T03:32:57.034Z,101320.41
2022-10-05T03:35:30.061Z,101325.03
2022-10-05T03:38:06.354Z,101314.19
2022-10-05T03:40:36.215Z,101308.19
2022-10-05T03:43:24.369Z,101313.13
2022-10-05T03:46:17.018Z,101298.44
2022-10-05T03:48:57.645Z,101296.44
2022-10-05T03:51:28.530Z,101289.88
2022-10-05T03:54:00.745Z,101299.91
2022-10-05T03:56:38.750Z,101294.88
2022-10-05T03:59:18.144Z,101290.59
2022-10-05T04:01:59.495Z,101298.00
2022-10-05T04:05:04.909Z,101290.59
2022-10-05T04:07:44.357Z,101294.72
2022-10-05T04:10:17.521Z,101291.25
2022-10-05T04:12:49.233Z,101293.25
2022-10-05T04:15:21.595Z,101285.78
2022-10-05T04:17:57.303Z,101290.00
2022-10-05T04:20:46.820Z,101290.19
2022-10-05T04:23:21.223Z,101283.88
2022-10-05T04:25:53.007Z,101288.19
2022-10-05T04:29:03.707Z,101276.25
2022-10-05T04:31:56.025Z,101286.38
2022-10-05T04:34:59.934Z,101286.63
2022-10-05T04:37:46.671Z,101284.09
2022-10-05T04:40:26.217Z,101285.47
2022-10-05T04:43:10.454Z,101294.56
2022-10-05T04:45:53.954Z,101294.22
2022-10-05T04:48:35.214Z,101290.56
2022-10-05T04:51:32.261Z,101295.03
2022-10-05T04:54:20.600Z,101291.91
2022-10-05T04:56:58.385Z,101296.66
2022-10-05T04:59:52.877Z,101296.22
2022-10-05T05:02:48.908Z,101294.03
2022-10-05T05:05:22.862Z,101302.47
2022-10-05T05:07:58.261Z,101295.66
2022-10-05T05:10:55.270Z,101298.75
2022-10-05T05:13:24.672Z,101296.66
2022-10-05T05:16:05.276Z,101299.00
2022-10-05T05:18:43.059Z,101294.03
2022-10-05T05:21:21.336Z,101288.44
2022-10-05T05:24:01.663Z,101295.19
2022-10-05T05:26:57.051Z,101301.22
2022-10-05T05:29:42.414Z,101301.13
2022-10-05T05:32:17.224Z,101295.03
2022-10-05T05:34:57.463Z,101291.38
2022-10-05T05:37:44.125Z,101308.44
2022-10-05T05:40:20.391Z,101299.22
2022-10-05T05:42:52.902Z,101300.88
2022-10-05T05:45:41.843Z,101303.22
2022-10-05T05:48:22.114Z,101307.50
2022-10-05T05:51:36.676Z,101299.22
2022-10-05T05:54:26.979Z,101303.06
2022-10-05T05:56:58.442Z,101305.03
2022-10-05T05:59:32.468Z,101306.69
2022-10-05T06:02:13.895Z,101296.31
2022-10-05T06:04:45.941Z,101295.28
2022-10-05T06:07:30.181Z,101292.94
2022-10-05T06:10:06.098Z,101298.41
2022-10-05T06:12:41.237Z,101297.69
2022-10-05T06:15:26.299Z,101292.41
2022-10-05T06:17:56.376Z,101306.44
2022-10-05T06:20:30.944Z,101298.78
2022-10-05T06:23:04.758Z,101301.78
2022-10-05T06:25:56.762Z,101305.91
2022-10-05T06:28:25.538Z,101304.97
2022-10-05T06:31:17.826Z,101306.16
2022-10-05T06:33:52.193Z,101301.59
2022-10-05T06:36:45.737Z,101304.09
2022-10-05T06:39:34.277Z,101299.53
2022-10-05T06:42:23.017Z,101302.09
2022-10-05T06:45:02.556Z,101301.53
2022-10-05T06:47:44.948Z,101290.69
2022-10-05T06:50:52.581Z,101297.44
2022-10-05T06:53:24.695Z,101295.31
2022-10-05T06:56:03.155Z,101295.13
2022-10-05T06:58:29.493Z,101293.22
2022-10-05T07:01:32.746Z,101295.97
2022-10-05T07:04:02.119Z,101300.78
2022-10-05T07:06:49.776Z,101303.41
2022-10-05T07:09:34.952Z,101305.69
2022-10-05T07:12:05.673Z,101299.41
2022-10-05T07:14:45.168Z,101295.22
2022-10-05T07:17:30.423Z,101296.28
2022-10-05T07:20:25.988Z,101304.13
2022-10-05T07:23:02.815Z,101292.53
2022-10-05T07:25:37.118Z,101297.25
2022-10-05T07:28:06.500Z,101300.91
2022-10-05T07:30:48.245Z,101295.88
2022-10-05T07:33:56.429Z,101303.81
2022-10-05T07:36:54.970Z,101301.63
2022-10-05T07:39:58.383Z,101303.91
2022-10-05T07:42:52.770Z,101296.44
2022-10-05T07:45:39.080Z,101302.53
2022-10-05T07:48:33.190Z,101304.88
2022-10-05T07:51:06.197Z,101297.16
2022-10-05T07:53:39.766Z,101302.13
2022-10-05T07:56:34.152Z,101297.91
2022-10-05T07:59:07.868Z,101300.38
2022-10-05T08:01:44.251Z,101305.09
2022-10-05T08:04:24.104Z,101291.28
2022-10-05T08:06:55.933Z,101297.91
2022-10-05T08:09:40.917Z,101283.06
2022-10-05T08:12:09.746Z,101280.31
2022-10-05T08:14:48.246Z,101288.88
2022-10-05T08:17:46.584Z,101284.25
2022-10-05T08:20:29.858Z,101282.25
2022-10-05T08:23:15.252Z,101288.16
2022-10-05T08:25:56.602Z,101291.28
2022-10-05T08:28:47.143Z,101284.63
2022-10-05T08:31:33.593Z,101288.53
2022-10-05T08:34:34.583Z,101289.34
2022-10-05T08:37:00.974Z,101284.13
2022-10-05T08:39:34.169Z,101293.59
2022-10-05T08:42:19.221Z,101290.41
2022-10-05T08:45:09.655Z,101290.00
2022-10-05T08:47:57.423Z,101289.84
2022-10-05T08:50:45.497Z,101293.53
2022-10-05T08:53:30.628Z,101289.88
2022-10-05T08:56:33.754Z,101289.53
2022-10-05T08:59:21.774Z,101286.06
2022-10-05T09:02:06.913Z,101277.53
2022-10-05T09:04:50.144Z,101282.47
2022-10-05T09:07:52.419Z,101281.44
2022-10-05T09:10:24.808Z,101279.44
2022-10-05T09:12:51.132Z,101286.56
2022-10-05T09:15:46.817Z,101275.75
2022-10-05T09:18:13.049Z,101272.72
2022-10-05T09:21:03.180Z,101266.59
2022-10-05T09:23:39.740Z,101269.06
2022-10-05T09:26:43.349Z,101259.88
2022-10-05T09:29:37.626Z,101266.00
2022-10-05T09:32:23.385Z,101256.44
2022-10-05T09:34:53.646Z,101270.09
2022-10-05T09:37:38.453Z,101256.41
2022-10-05T09:40:44.469Z,101258.09
2022-10-05T09:43:33.543Z,101254.56
2022-10-05T09:46:28.690Z,101264.81
2022-10-05T09:49:10.922Z,101257.44
2022-10-05T09:51:55.726Z,101255.63
2022-10-05T09:54:33.576Z,101249.09
2022-10-05T09:57:21.873Z,101260.13
2022-10-05T10:00:03.470Z,101253.19
2022-10-05T10:02:49.510Z,101250.31
2022-10-05T10:05:31.336Z,101248.09
2022-10-05T10:08:56.328Z,101245.59
2022-10-05T10:11:36.130Z,101248.25
2022-10-05T10:14:39.086Z,101246.25
2022-10-05T10:17:27.109Z,101244.00
2022-10-05T10:20:26.259Z,101242.16
2022-10-05T10:23:14.483Z,101238.88
2022-10-05T10:26:09.045Z,101249.69
2022-10-05T10:28:55.166Z,101245.19
2022-10-05T10:31:39.897Z,101247.84
2022-10-05T10:34:18.467Z,101246.63
2022-10-05T10:37:14.154Z,101249.06
2022-10-05T10:40:08.955Z,101250.88
2022-10-05T10:43:10.849Z,101244.53
2022-10-05T10:45:48.852Z,101259.22
2022-10-05T10:48:30.471Z,101248.91
2022-10-05T10:51:06.167Z,101240.13
2022-10-05T10:54:12.153Z,101233.28
2022-10-05T10:56:48.284Z,101225.63
2022-10-05T10:59:31.599Z,101214.38
2022-10-05T11:02:19.985Z,101215.50
2022-10-05T11:05:21.853Z,101217.81
2022-10-05T11:07:48.212Z,101208.72
2022-10-05T11:10:34.778Z,101209.91
2022-10-05T11:13:24.610Z,101195.81
2022-10-05T11:16:03.157Z,101192.00
2022-10-05T11:18:38.169Z,101187.19
2022-10-05T11:21:22.527Z,101183.75
2022-10-05T11:24:20.666Z,101176.91
2022-10-05T11:27:03.231Z,101165.47
2022-10-05T11:30:07.250Z,101163.41
2022-10-05T11:32:56.140Z,101150.78
2022-10-05T11:35:47.202Z,101144.69
2022-10-05T11:39:02.010Z,101138.91
2022-10-05T11:44:27.078Z,101134.78
2022-10-05T11:47:08.956Z,101118.59
2022-10-05T11:50:05.517Z,101129.16
2022-10-05T11:52:50.402Z,101120.00
2022-10-05T11:55:23.444Z,101097.94
2022-10-05T11:58:01.707Z,101108.47
2022-10-05T12:00:36.080Z,101102.25
2022-10-05T12:03:09.359Z,101108.56
2022-10-05T12:05:44.890Z,101100.94
2022-10-05T12:08:23.282Z,101089.63
2022-10-05T12:11:26.806Z,101084.59
2022-10-05T12:14:00.009Z,101081.69
2022-10-05T12:16:49.511Z,101079.19
2022-10-05T12:19:29.586Z,101074.84
2022-10-05T12:22:04.086Z,101063.72
2022-10-05T12:24:47.723Z,101056.22
2022-10-05T12:27:16.327Z,101047.97
2022-10-05T12:29:57.805Z,101043.88
2022-10-05T12:32:33.967Z,101043.28
2022-10-05T12:35:36.552Z,101038.78
2022-10-05T12:38:36.866Z,101035.97
2022-10-05T12:41:07.765Z,101020.00
2022-10-05T12:43:48.934Z,101020.38
2022-10-05T12:46:25.245Z,101017.41
2022-10-05T12:49:18.514Z,101019.81
2022-10-05T12:51:56.475Z,101009.63
2022-10-05T12:54:34.962Z,101002.59
2022-10-05T12:57:47.800Z,100998.00
2022-10-05T13:00:22.465Z,100989.53
2022-10-05T13:03:17.376Z,100998.25
2022-10-05T13:06:04.130Z,100993.63
2022-10-05T13:08:40.171Z,100977.34
2022-10-05T13:11:31.008Z,100975.31
2022-10-05T13:14:11.948Z,100959.75
2022-10-05T13:16:59.308Z,100955.19
2022-10-05T13:19:44.582Z,100962.47
2022-10-05T13:22:52.438Z,100956.22
2022-10-05T13:25:21.773Z,100948.75
2022-10-05T13:28:10.510Z,100946.84
2022-10-05T13:30:40.390Z,100953.88
2022-10-05T13:33:17.936Z,100950.09
2022-10-05T13:36:04.833Z,100947.38
2022-10-05T13:38:46.212Z,100943.06
2022-10-05T13:41:24.409Z,100943.38
2022-10-05T13:44:00.117Z,100936.09
2022-10-05T13:46:33.198Z,100950.06
2022-10-05T13:49:11.827Z,100936.88
2022-10-05T13:52:01.387Z,100946.50
2022-10-05T13:54:37.843Z,100948.88
2022-10-05T13:57:29.938Z,100944.66
2022-10-05T14:00:05.955Z,100937.16
2022-10-05T14:02:40.034Z,100935.66
2022-10-05T14:05:27.908Z,100927.94
2022-10-05T14:07:58.567Z,100942.44
2022-10-05T14:10:38.817Z,100937.63
2022-10-05T14:13:23.686Z,100933.78
2022-10-05T14:15:59.564Z,100923.66
2022-10-05T14:18:29.795Z,100937.22
2022-10-05T14:21:03.991Z,100926.78
2022-10-05T14:23:30.537Z,100924.41
2022-10-05T14:25:57.401Z,100929.72
2022-10-05T14:28:29.684Z,100923.88
2022-10-05T14:30:59.279Z,100942.03
2022-10-05T14:33:30.682Z,100922.91
2022-10-05T14:35:58.602Z,100933.28
2022-10-05T14:38:49.498Z,100934.59
2022-10-05T14:41:28.378Z,100932.38
2022-10-05T14:44:13.076Z,100945.84
2022-10-05T14:46:52.890Z,100943.66
2022-10-05T14:49:24.312Z,100937.63
2022-10-05T14:51:51.509Z,100941.34
2022-10-05T14:54:25.779Z,100939.13
2022-10-05T14:57:06.393Z,100942.50
2022-10-05T14:59:59.990Z,100935.31
2022-10-05T15:02:45.219Z,100941.91
2022-10-05T15:05:26.681Z,100943.41
2022-10-05T15:08:01.031Z,100945.25
2022-10-05T15:10:30.472Z,100939.72
2022-10-05T15:13:19.082Z,100952.19
2022-10-05T15:15:51.012Z,100960.72
2022-10-05T15:18:45.336Z,100958.28
2022-10-05T15:21:40.492Z,100962.13
2022-10-05T15:24:20.124Z,100966.00
2022-10-05T15:26:51.678Z,100967.28
2022-10-05T15:29:30.922Z,100960.03
2022-10-05T15:32:14.426Z,100963.09
2022-10-05T15:35:31.362Z,100970.50
2022-10-05T15:38:21.030Z,100967.56
2022-10-05T15:41:15.948Z,100973.47
2022-10-05T15:44:00.833Z,100978.53
2022-10-05T15:47:04.944Z,100989.72
2022-10-05T15:49:46.612Z,100994.88
2022-10-05T15:52:27.954Z,100991.66
2022-10-05T15:55:02.219Z,101008.47
2022-10-05T15:57:40.548Z,101003.38
2022-10-05T16:00:16.544Z,101021.72
2022-10-05T16:03:02.030Z,101022.19
2022-10-05T16:06:06.337Z,101027.31
2022-10-05T16:08:50.591Z,101028.72
2022-10-05T16:11:40.542Z,101039.50
2022-10-05T16:14:19.977Z,101046.09
2022-10-05T16:17:02.583Z,101052.41
2022-10-05T16:19:35.016Z,101063.75
2022-10-05T16:22:16.808Z,101066.72
2022-10-05T16:24:49.173Z,101071.66
2022-10-05T16:27:20.641Z,101072.50
2022-10-05T16:30:00.982Z,101067.53
2022-10-05T16:32:30.258Z,101083.34
2022-10-05T16:35:19.351Z,101092.22
2022-10-05T16:38:24.919Z,101094.22
2022-10-05T16:41:03.632Z,101094.94
2022-10-05T16:43:49.480Z,101103.19
2022-10-05T16:46:34.586Z,101095.88
2022-10-05T16:49:15.861Z,101103.44
2022-10-05T16:52:18.854Z,101114.16
2022-10-05T16:54:51.254Z,101123.91
2022-10-05T16:57:23.956Z,101134.97
2022-10-05T17:00:04.338Z,101125.47
2022-10-05T17:02:43.329Z,101145.16
2022-10-05T17:05:24.834Z,101163.03
2022-10-05T17:08:01.217Z,101165.94
2022-10-05T17:11:00.030Z,101171.50
2022-10-05T17:13:53.495Z,101171.03
2022-10-05T17:16:26.026Z,101172.03
2022-10-05T17:19:05.955Z,101182.47
2022-10-05T17:22:22.677Z,101193.09
2022-10-05T17:24:57.911Z,101208.19
2022-10-05T17:28:01.778Z,101206.19
2022-10-05T17:30:48.413Z,101205.97
2022-10-05T17:33:21.927Z,101218.22
2022-10-05T17:36:08.541Z,101212.56
2022-10-05T17:38:34.841Z,101222.84
2022-10-05T17:41:04.757Z,101219.59
2022-10-05T17:43:32.626Z,101231.41
2022-10-05T17:46:10.334Z,101234.50
2022-10-05T17:48:54.108Z,101231.59
2022-10-05T17:51:48.203Z,101237.16
2022-10-05T17:54:41.666Z,101235.91
2022-10-05T17:57:07.933Z,101254.00
2022-10-05T17:59:53.894Z,101250.13
2022-10-05T18:02:37.424Z,101272.28
2022-10-05T18:05:06.656Z,101269.66
2022-10-05T18:07:37.352Z,101254.13
2022-10-05T18:10:09.579Z,101260.06
2022-10-05T18:12:48.746Z,101255.16
2022-10-05T18:15:23.274Z,101262.78
2022-10-05T18:18:32.470Z,101257.88
2022-10-05T18:21:08.018Z,101248.88
2022-10-05T18:23:36.264Z,101259.53
2022-10-05T18:26:20.317Z,101258.72
2022-10-05T18:28:52.528Z,101254.44
2022-10-05T18:31:36.012Z,101258.13
2022-10-05T18:34:08.889Z,101259.81
2022-10-05T18:37:03.306Z,101261.84
2022-10-05T18:40:08.525Z,101262.25
2022-10-05T18:43:18.300Z,101268.63
2022-10-05T18:45:54.109Z,101270.09
2022-10-05T18:48:35.412Z,101269.97
2022-10-05T18:51:17.818Z,101267.88
2022-10-05T18:54:07.241Z,101266.91
2022-10-05T18:56:43.825Z,101268.91
2022-10-05T18:59:24.089Z,101273.00
2022-10-05T19:02:04.401Z,101274.25
2022-10-05T19:05:02.372Z,101264.88
2022-10-05T19:07:28.725Z,101261.25
2022-10-05T19:10:28.381Z,101261.63
2022-10-05T19:13:00.652Z,101271.03
2022-10-05T19:15:41.740Z,101265.72
2022-10-05T19:18:08.115Z,101271.63
2022-10-05T19:20:57.982Z,101273.06
2022-10-05T19:23:38.814Z,101280.00
2022-10-05T19:26:17.967Z,101282.47
2022-10-05T19:29:18.303Z,101287.75
2022-10-05T19:31:54.519Z,101291.44
2022-10-05T19:34:42.298Z,101290.66
2022-10-05T19:37:24.144Z,101304.81
2022-10-05T19:39:58.707Z,101287.81
2022-10-05T19:42:47.194Z,101301.78
2022-10-05T19:45:28.278Z,101293.72
2022-10-05T19:48:00.671Z,101290.22
2022-10-05T19:50:37.601Z,101294.53
2022-10-05T19:55:56.048Z,101297.59
2022-10-05T19:58:31.458Z,101291.88
2022-10-05T20:01:00.645Z,101293.25
2022-10-05T20:03:29.461Z,101299.59
2022-10-05T20:06:01.506Z,101300.84
2022-10-05T20:08:39.312Z,101298.34
2022-10-05T20:11:13.637Z,101297.81
2022-10-05T20:14:09.420Z,101302.53
2022-10-05T20:16:57.523Z,101309.72
2022-10-05T20:19:51.652Z,101314.81
2022-10-05T20:22:46.238Z,101304.38
2022-10-05T20:25:31.764Z,101313.22
2022-10-05T20:27:58.454Z,101310.53
2022-10-05T20:30:40.367Z,101314.66
2022-10-05T20:33:11.553Z,101319.34
2022-10-05T20:35:38.039Z,101324.88
2022-10-05T20:38:04.548Z,101329.84
2022-10-05T20:40:30.916Z,101335.19
2022-10-05T20:42:58.211Z,101346.63
2022-10-05T20:45:24.801Z,101348.47
2022-10-05T20:47:51.237Z,101352.16
2022-10-05T20:50:17.950Z,101347.41
2022-10-05T20:52:44.570Z,101352.53
2022-10-05T20:55:12.396Z,101356.19
2022-10-05T20:57:41.959Z,101351.88
2022-10-05T21:00:10.267Z,101356.81
2022-10-05T21:02:37.213Z,101364.19
2022-10-05T21:05:04.550Z,101373.00
2022-10-05T21:07:31.166Z,101370.09
2022-10-05T21:09:57.586Z,101379.69
2022-10-05T21:12:23.959Z,101375.75
2022-10-05T21:14:52.564Z,101377.81
2022-10-05T21:17:20.117Z,101392.19
2022-10-05T21:19:46.980Z,101391.91
2022-10-05T21:22:13.377Z,101393.09
2022-10-05T21:24:40.854Z,101397.63
2022-10-05T21:27:08.373Z,101397.47
2022-10-05T21:29:36.400Z,101392.34
2022-10-05T21:32:08.201Z,101399.56
2022-10-05T21:34:35.064Z,101406.50
2022-10-05T21:37:01.387Z,101401.63
2022-10-05T21:39:27.793Z,101406.13
2022-10-05T21:41:54.212Z,101418.28
2022-10-05T21:44:20.588Z,101415.00
2022-10-05T21:46:48.129Z,101419.28
2022-10-05T21:49:17.615Z,101415.19
2022-10-05T21:51:46.026Z,101424.84
2022-10-05T21:54:16.774Z,101434.16
2022-10-05T21:56:47.855Z,101473.75
2022-10-05T21:59:18.727Z,101514.81
2022-10-05T22:01:45.173Z,101514.09
2022-10-05T22:04:11.697Z,101527.16
2022-10-05T22:06:38.121Z,101525.91
2022-10-05T22:09:04.929Z,101510.75
2022-10-05T22:11:31.576Z,101519.50
2022-10-05T22:14:02.385Z,101501.31
2022-10-05T22:16:34.063Z,101513.59
2022-10-05T22:19:14.231Z,101526.66
2022-10-05T22:21:41.746Z,101537.13
2022-10-05T22:24:11.357Z,101533.41
2022-10-05T22:26:38.772Z,101550.59
2022-10-05T22:29:05.312Z,101553.69
2022-10-05T22:31:31.814Z,101561.63
2022-10-05T22:33:58.309Z,101551.19
2022-10-05T22:36:24.824Z,101573.66
2022-10-05T22:38:51.186Z,101580.00
2022-10-05T22:41:20.506Z,101581.81
2022-10-05T22:43:49.892Z,101597.13
2022-10-05T22:46:16.868Z,101587.53
2022-10-05T22:48:43.330Z,101589.16
2022-10-05T22:51:10.010Z,101589.59
2022-10-05T22:53:36.406Z,101599.56
2022-10-05T22:56:11.225Z,101604.69
2022-10-05T22:58:38.217Z,101607.75
2022-10-05T23:01:10.431Z,101605.88
2022-10-05T23:03:37.066Z,101610.00
2022-10-05T23:06:09.807Z,101603.66
2022-10-05T23:08:37.868Z,101604.69
2022-10-05T23:11:23.609Z,101610.00
2022-10-05T23:13:52.131Z,101655.34
2022-10-05T23:16:21.072Z,101690.63
2022-10-05T23:18:49.065Z,101711.59
2022-10-05T23:21:16.139Z,101717.19
2022-10-05T23:23:47.270Z,101722.25
2022-10-05T23:26:13.904Z,101729.00
2022-10-05T23:28:46.205Z,101738.97
2022-10-05T23:31:15.211Z,101761.03
2022-10-05T23:33:41.785Z,101755.31
2022-10-05T23:36:17.444Z,101753.78
2022-10-05T23:38:43.909Z,101759.38
2022-10-05T23:41:10.802Z,101755.69
2022-10-05T23:43:37.289Z,101745.00
2022-10-05T23:46:05.568Z,101752.53
2022-10-05T23:48:32.396Z,101754.00
2022-10-05T23:50:59.592Z,101758.97
2022-10-05T23:53:26.148Z,101744.56
2022-10-05T23:55:53.373Z,101754.06
2022-10-05T23:58:20.518Z,101751.25
